sensor_id;sensor_type;location;lat;lon;timestamp;P1;durP1;ratioP1;P2;durP2;ratioP2
75340;SDS011;64931;47.562;18.920;2023-05-16T00:00:48;4.80;;;2.10;;
75340;SDS011;64931;47.562;18.920;2023-05-16T00:03:17;4.20;;;2.10;;
75340;SDS011;64931;47.562;18.920;2023-05-16T00:05:43;4.90;;;2.00;;
75340;SDS011;64931;47.562;18.920;2023-05-16T00:08:09;4.50;;;2.00;;
75340;SDS011;64931;47.562;18.920;2023-05-16T00:10:35;4.10;;;1.80;;
75340;SDS011;64931;47.562;18.920;2023-05-16T00:13:01;2.80;;;1.80;;
75340;SDS011;64931;47.562;18.920;2023-05-16T00:15:27;4.70;;;1.80;;
75340;SDS011;64931;47.562;18.920;2023-05-16T00:17:54;3.20;;;1.80;;
75340;SDS011;64931;47.562;18.920;2023-05-16T00:20:26;2.80;;;1.70;;
75340;SDS011;64931;47.562;18.920;2023-05-16T00:22:52;3.00;;;1.50;;
75340;SDS011;64931;47.562;18.920;2023-05-16T00:25:18;2.50;;;0.90;;
75340;SDS011;64931;47.562;18.920;2023-05-16T00:27:43;5.50;;;1.20;;
75340;SDS011;64931;47.562;18.920;2023-05-16T00:30:09;1.70;;;1.00;;
75340;SDS011;64931;47.562;18.920;2023-05-16T00:32:35;5.40;;;1.40;;
75340;SDS011;64931;47.562;18.920;2023-05-16T00:35:00;3.50;;;1.20;;
75340;SDS011;64931;47.562;18.920;2023-05-16T00:37:26;2.80;;;1.10;;
75340;SDS011;64931;47.562;18.920;2023-05-16T00:39:52;3.70;;;1.10;;
75340;SDS011;64931;47.562;18.920;2023-05-16T00:42:18;3.40;;;1.10;;
75340;SDS011;64931;47.562;18.920;2023-05-16T00:44:44;1.30;;;0.80;;
75340;SDS011;64931;47.562;18.920;2023-05-16T00:47:10;2.60;;;0.80;;
75340;SDS011;64931;47.562;18.920;2023-05-16T00:49:35;4.60;;;0.90;;
75340;SDS011;64931;47.562;18.920;2023-05-16T00:52:00;3.50;;;0.90;;
75340;SDS011;64931;47.562;18.920;2023-05-16T00:54:26;5.10;;;1.10;;
75340;SDS011;64931;47.562;18.920;2023-05-16T00:56:53;2.50;;;0.90;;
75340;SDS011;64931;47.562;18.920;2023-05-16T00:59:20;3.60;;;0.90;;
75340;SDS011;64931;47.562;18.920;2023-05-16T01:01:45;2.50;;;1.10;;
75340;SDS011;64931;47.562;18.920;2023-05-16T01:04:14;1.80;;;0.90;;
75340;SDS011;64931;47.562;18.920;2023-05-16T01:06:40;1.70;;;1.00;;
75340;SDS011;64931;47.562;18.920;2023-05-16T01:09:05;1.90;;;1.10;;
75340;SDS011;64931;47.562;18.920;2023-05-16T01:14:25;3.40;;;1.00;;
75340;SDS011;64931;47.562;18.920;2023-05-16T01:17:02;2.20;;;1.00;;
75340;SDS011;64931;47.562;18.920;2023-05-16T01:25:17;2.40;;;1.00;;
75340;SDS011;64931;47.562;18.920;2023-05-16T01:27:45;6.60;;;1.00;;
75340;SDS011;64931;47.562;18.920;2023-05-16T01:30:18;3.10;;;1.10;;
75340;SDS011;64931;47.562;18.920;2023-05-16T01:32:43;1.70;;;0.90;;
75340;SDS011;64931;47.562;18.920;2023-05-16T01:35:10;2.70;;;1.00;;
75340;SDS011;64931;47.562;18.920;2023-05-16T01:37:40;1.80;;;1.10;;
75340;SDS011;64931;47.562;18.920;2023-05-16T01:43:15;1.60;;;0.90;;
75340;SDS011;64931;47.562;18.920;2023-05-16T01:45:45;1.60;;;0.90;;
75340;SDS011;64931;47.562;18.920;2023-05-16T01:48:15;3.10;;;1.00;;
75340;SDS011;64931;47.562;18.920;2023-05-16T01:50:44;2.00;;;1.30;;
75340;SDS011;64931;47.562;18.920;2023-05-16T01:53:26;1.70;;;0.90;;
75340;SDS011;64931;47.562;18.920;2023-05-16T01:55:55;2.80;;;1.10;;
75340;SDS011;64931;47.562;18.920;2023-05-16T01:58:22;2.90;;;0.90;;
75340;SDS011;64931;47.562;18.920;2023-05-16T02:00:53;2.00;;;1.10;;
75340;SDS011;64931;47.562;18.920;2023-05-16T02:03:19;2.30;;;1.00;;
75340;SDS011;64931;47.562;18.920;2023-05-16T02:05:44;1.40;;;0.90;;
75340;SDS011;64931;47.562;18.920;2023-05-16T02:08:09;1.90;;;1.10;;
75340;SDS011;64931;47.562;18.920;2023-05-16T02:10:35;4.50;;;0.90;;
75340;SDS011;64931;47.562;18.920;2023-05-16T02:13:00;2.90;;;1.20;;
75340;SDS011;64931;47.562;18.920;2023-05-16T02:15:26;3.20;;;1.40;;
75340;SDS011;64931;47.562;18.920;2023-05-16T02:17:51;4.40;;;1.20;;
75340;SDS011;64931;47.562;18.920;2023-05-16T02:20:16;4.00;;;1.20;;
75340;SDS011;64931;47.562;18.920;2023-05-16T02:22:42;2.30;;;1.30;;
75340;SDS011;64931;47.562;18.920;2023-05-16T02:25:08;2.80;;;1.30;;
75340;SDS011;64931;47.562;18.920;2023-05-16T02:27:34;2.90;;;1.10;;
75340;SDS011;64931;47.562;18.920;2023-05-16T02:30:00;3.20;;;1.10;;
75340;SDS011;64931;47.562;18.920;2023-05-16T02:32:26;3.50;;;1.20;;
75340;SDS011;64931;47.562;18.920;2023-05-16T02:34:51;3.30;;;1.20;;
75340;SDS011;64931;47.562;18.920;2023-05-16T02:37:17;2.20;;;1.10;;
75340;SDS011;64931;47.562;18.920;2023-05-16T02:39:42;2.50;;;1.30;;
75340;SDS011;64931;47.562;18.920;2023-05-16T02:42:08;3.10;;;1.10;;
75340;SDS011;64931;47.562;18.920;2023-05-16T02:44:33;3.90;;;1.10;;
75340;SDS011;64931;47.562;18.920;2023-05-16T02:46:58;2.20;;;1.10;;
75340;SDS011;64931;47.562;18.920;2023-05-16T02:49:24;3.00;;;1.30;;
75340;SDS011;64931;47.562;18.920;2023-05-16T02:51:49;2.40;;;1.10;;
75340;SDS011;64931;47.562;18.920;2023-05-16T02:54:15;1.90;;;1.00;;
75340;SDS011;64931;47.562;18.920;2023-05-16T02:56:41;2.30;;;1.20;;
75340;SDS011;64931;47.562;18.920;2023-05-16T02:59:06;4.00;;;1.10;;
75340;SDS011;64931;47.562;18.920;2023-05-16T03:01:33;2.30;;;1.30;;
75340;SDS011;64931;47.562;18.920;2023-05-16T03:03:58;2.40;;;1.20;;
75340;SDS011;64931;47.562;18.920;2023-05-16T03:06:24;2.10;;;1.20;;
75340;SDS011;64931;47.562;18.920;2023-05-16T03:08:49;2.20;;;1.20;;
75340;SDS011;64931;47.562;18.920;2023-05-16T03:11:15;4.10;;;1.10;;
75340;SDS011;64931;47.562;18.920;2023-05-16T03:13:43;3.50;;;1.30;;
75340;SDS011;64931;47.562;18.920;2023-05-16T03:16:08;2.50;;;1.10;;
75340;SDS011;64931;47.562;18.920;2023-05-16T03:18:33;3.40;;;1.20;;
75340;SDS011;64931;47.562;18.920;2023-05-16T03:20:59;1.70;;;1.10;;
75340;SDS011;64931;47.562;18.920;2023-05-16T03:23:25;4.20;;;1.40;;
75340;SDS011;64931;47.562;18.920;2023-05-16T03:25:51;2.20;;;1.20;;
75340;SDS011;64931;47.562;18.920;2023-05-16T03:28:16;2.80;;;1.40;;
75340;SDS011;64931;47.562;18.920;2023-05-16T03:30:42;2.50;;;1.10;;
75340;SDS011;64931;47.562;18.920;2023-05-16T03:33:07;5.60;;;1.40;;
75340;SDS011;64931;47.562;18.920;2023-05-16T03:35:33;2.10;;;1.20;;
75340;SDS011;64931;47.562;18.920;2023-05-16T03:37:59;2.30;;;1.10;;
75340;SDS011;64931;47.562;18.920;2023-05-16T03:40:25;2.30;;;1.20;;
75340;SDS011;64931;47.562;18.920;2023-05-16T03:42:50;2.60;;;1.20;;
75340;SDS011;64931;47.562;18.920;2023-05-16T03:45:16;2.10;;;1.30;;
75340;SDS011;64931;47.562;18.920;2023-05-16T03:47:41;3.80;;;1.30;;
75340;SDS011;64931;47.562;18.920;2023-05-16T03:50:07;2.70;;;1.00;;
75340;SDS011;64931;47.562;18.920;2023-05-16T03:52:34;2.50;;;1.20;;
75340;SDS011;64931;47.562;18.920;2023-05-16T03:54:59;2.80;;;1.40;;
75340;SDS011;64931;47.562;18.920;2023-05-16T03:57:26;2.50;;;1.30;;
75340;SDS011;64931;47.562;18.920;2023-05-16T03:59:51;2.70;;;1.50;;
75340;SDS011;64931;47.562;18.920;2023-05-16T04:02:17;2.30;;;1.30;;
75340;SDS011;64931;47.562;18.920;2023-05-16T04:04:42;2.20;;;1.10;;
75340;SDS011;64931;47.562;18.920;2023-05-16T04:07:08;5.20;;;1.20;;
75340;SDS011;64931;47.562;18.920;2023-05-16T04:09:33;2.90;;;1.20;;
75340;SDS011;64931;47.562;18.920;2023-05-16T04:11:58;2.90;;;1.00;;
75340;SDS011;64931;47.562;18.920;2023-05-16T04:14:26;3.10;;;1.20;;
75340;SDS011;64931;47.562;18.920;2023-05-16T04:16:51;1.50;;;1.00;;
75340;SDS011;64931;47.562;18.920;2023-05-16T04:19:17;2.00;;;1.20;;
75340;SDS011;64931;47.562;18.920;2023-05-16T04:21:42;4.20;;;1.30;;
75340;SDS011;64931;47.562;18.920;2023-05-16T04:24:07;2.50;;;1.40;;
75340;SDS011;64931;47.562;18.920;2023-05-16T04:26:33;2.10;;;1.10;;
75340;SDS011;64931;47.562;18.920;2023-05-16T04:28:58;1.80;;;1.10;;
75340;SDS011;64931;47.562;18.920;2023-05-16T04:31:24;4.10;;;1.30;;
75340;SDS011;64931;47.562;18.920;2023-05-16T04:33:50;2.50;;;1.10;;
75340;SDS011;64931;47.562;18.920;2023-05-16T04:36:16;2.70;;;1.40;;
75340;SDS011;64931;47.562;18.920;2023-05-16T04:38:42;4.60;;;1.30;;
75340;SDS011;64931;47.562;18.920;2023-05-16T04:41:07;2.20;;;1.10;;
75340;SDS011;64931;47.562;18.920;2023-05-16T04:43:33;2.20;;;1.20;;
75340;SDS011;64931;47.562;18.920;2023-05-16T04:45:59;2.30;;;1.20;;
75340;SDS011;64931;47.562;18.920;2023-05-16T04:48:25;2.70;;;1.40;;
75340;SDS011;64931;47.562;18.920;2023-05-16T04:50:50;3.20;;;1.10;;
75340;SDS011;64931;47.562;18.920;2023-05-16T04:53:16;2.80;;;1.10;;
75340;SDS011;64931;47.562;18.920;2023-05-16T04:55:41;1.60;;;1.10;;
75340;SDS011;64931;47.562;18.920;2023-05-16T04:58:07;2.20;;;1.20;;
75340;SDS011;64931;47.562;18.920;2023-05-16T05:00:32;2.90;;;1.30;;
75340;SDS011;64931;47.562;18.920;2023-05-16T05:02:58;2.30;;;1.20;;
75340;SDS011;64931;47.562;18.920;2023-05-16T05:05:23;1.90;;;1.00;;
75340;SDS011;64931;47.562;18.920;2023-05-16T05:07:49;3.30;;;1.10;;
75340;SDS011;64931;47.562;18.920;2023-05-16T05:10:15;2.50;;;1.20;;
75340;SDS011;64931;47.562;18.920;2023-05-16T05:12:40;4.40;;;1.40;;
75340;SDS011;64931;47.562;18.920;2023-05-16T05:15:06;3.00;;;1.20;;
75340;SDS011;64931;47.562;18.920;2023-05-16T05:17:31;2.50;;;1.40;;
75340;SDS011;64931;47.562;18.920;2023-05-16T05:19:57;2.10;;;1.10;;
75340;SDS011;64931;47.562;18.920;2023-05-16T05:22:22;2.70;;;1.10;;
75340;SDS011;64931;47.562;18.920;2023-05-16T05:24:47;2.40;;;1.10;;
75340;SDS011;64931;47.562;18.920;2023-05-16T05:27:13;5.10;;;1.40;;
75340;SDS011;64931;47.562;18.920;2023-05-16T05:29:38;3.10;;;1.30;;
75340;SDS011;64931;47.562;18.920;2023-05-16T05:32:04;2.00;;;1.00;;
75340;SDS011;64931;47.562;18.920;2023-05-16T05:34:29;2.20;;;1.30;;
75340;SDS011;64931;47.562;18.920;2023-05-16T05:36:55;2.30;;;1.10;;
75340;SDS011;64931;47.562;18.920;2023-05-16T05:39:21;1.40;;;0.90;;
75340;SDS011;64931;47.562;18.920;2023-05-16T05:41:47;4.80;;;1.20;;
75340;SDS011;64931;47.562;18.920;2023-05-16T05:44:12;3.20;;;1.00;;
75340;SDS011;64931;47.562;18.920;2023-05-16T05:46:37;1.90;;;1.10;;
75340;SDS011;64931;47.562;18.920;2023-05-16T05:49:03;3.30;;;1.10;;
75340;SDS011;64931;47.562;18.920;2023-05-16T05:51:29;2.20;;;1.00;;
75340;SDS011;64931;47.562;18.920;2023-05-16T05:53:55;2.20;;;1.10;;
75340;SDS011;64931;47.562;18.920;2023-05-16T05:56:20;1.70;;;1.00;;
75340;SDS011;64931;47.562;18.920;2023-05-16T05:58:45;3.20;;;1.30;;
75340;SDS011;64931;47.562;18.920;2023-05-16T06:01:11;2.30;;;1.30;;
75340;SDS011;64931;47.562;18.920;2023-05-16T06:03:36;2.50;;;1.30;;
75340;SDS011;64931;47.562;18.920;2023-05-16T06:06:02;2.00;;;1.30;;
75340;SDS011;64931;47.562;18.920;2023-05-16T06:08:28;2.20;;;1.20;;
75340;SDS011;64931;47.562;18.920;2023-05-16T06:10:54;3.70;;;1.30;;
75340;SDS011;64931;47.562;18.920;2023-05-16T06:13:19;2.10;;;1.20;;
75340;SDS011;64931;47.562;18.920;2023-05-16T06:15:49;3.50;;;1.30;;
75340;SDS011;64931;47.562;18.920;2023-05-16T06:18:17;2.90;;;1.30;;
75340;SDS011;64931;47.562;18.920;2023-05-16T06:20:43;2.40;;;1.40;;
75340;SDS011;64931;47.562;18.920;2023-05-16T06:23:08;4.00;;;1.60;;
75340;SDS011;64931;47.562;18.920;2023-05-16T06:25:34;2.80;;;1.50;;
75340;SDS011;64931;47.562;18.920;2023-05-16T06:27:59;3.00;;;1.60;;
75340;SDS011;64931;47.562;18.920;2023-05-16T06:30:25;3.20;;;1.80;;
75340;SDS011;64931;47.562;18.920;2023-05-16T06:32:50;5.20;;;1.90;;
75340;SDS011;64931;47.562;18.920;2023-05-16T06:35:15;4.30;;;1.70;;
75340;SDS011;64931;47.562;18.920;2023-05-16T06:37:41;3.40;;;2.00;;
75340;SDS011;64931;47.562;18.920;2023-05-16T06:40:06;5.00;;;2.40;;
75340;SDS011;64931;47.562;18.920;2023-05-16T06:42:32;4.60;;;2.50;;
75340;SDS011;64931;47.562;18.920;2023-05-16T06:44:57;3.40;;;2.10;;
75340;SDS011;64931;47.562;18.920;2023-05-16T06:47:23;4.60;;;2.20;;
75340;SDS011;64931;47.562;18.920;2023-05-16T06:49:48;3.80;;;2.10;;
75340;SDS011;64931;47.562;18.920;2023-05-16T06:52:15;4.00;;;2.10;;
75340;SDS011;64931;47.562;18.920;2023-05-16T06:54:40;5.00;;;2.20;;
75340;SDS011;64931;47.562;18.920;2023-05-16T06:57:06;3.80;;;2.30;;
75340;SDS011;64931;47.562;18.920;2023-05-16T06:59:33;3.60;;;2.00;;
75340;SDS011;64931;47.562;18.920;2023-05-16T07:01:59;8.20;;;2.40;;
75340;SDS011;64931;47.562;18.920;2023-05-16T07:04:25;4.10;;;2.30;;
75340;SDS011;64931;47.562;18.920;2023-05-16T07:06:51;3.90;;;2.30;;
75340;SDS011;64931;47.562;18.920;2023-05-16T07:09:17;6.10;;;2.60;;
75340;SDS011;64931;47.562;18.920;2023-05-16T07:11:43;5.10;;;2.60;;
75340;SDS011;64931;47.562;18.920;2023-05-16T07:14:08;4.10;;;2.40;;
75340;SDS011;64931;47.562;18.920;2023-05-16T07:16:34;4.80;;;2.60;;
75340;SDS011;64931;47.562;18.920;2023-05-16T07:19:00;5.60;;;2.50;;
75340;SDS011;64931;47.562;18.920;2023-05-16T07:21:25;4.50;;;2.60;;
75340;SDS011;64931;47.562;18.920;2023-05-16T07:23:51;5.80;;;3.80;;
75340;SDS011;64931;47.562;18.920;2023-05-16T07:26:16;5.10;;;3.20;;
75340;SDS011;64931;47.562;18.920;2023-05-16T07:28:42;5.90;;;3.30;;
75340;SDS011;64931;47.562;18.920;2023-05-16T07:31:07;5.70;;;4.00;;
75340;SDS011;64931;47.562;18.920;2023-05-16T07:33:33;7.50;;;3.60;;
75340;SDS011;64931;47.562;18.920;2023-05-16T07:35:58;5.10;;;3.20;;
75340;SDS011;64931;47.562;18.920;2023-05-16T07:38:25;6.10;;;3.80;;
75340;SDS011;64931;47.562;18.920;2023-05-16T07:40:50;6.30;;;4.50;;
75340;SDS011;64931;47.562;18.920;2023-05-16T07:43:16;5.50;;;3.40;;
75340;SDS011;64931;47.562;18.920;2023-05-16T07:45:42;6.00;;;4.10;;
75340;SDS011;64931;47.562;18.920;2023-05-16T07:48:07;9.40;;;5.10;;
75340;SDS011;64931;47.562;18.920;2023-05-16T07:50:33;6.50;;;4.20;;
75340;SDS011;64931;47.562;18.920;2023-05-16T07:52:58;10.20;;;4.80;;
75340;SDS011;64931;47.562;18.920;2023-05-16T07:55:23;7.30;;;5.40;;
75340;SDS011;64931;47.562;18.920;2023-05-16T07:57:49;7.70;;;4.90;;
75340;SDS011;64931;47.562;18.920;2023-05-16T08:00:15;8.70;;;5.50;;
75340;SDS011;64931;47.562;18.920;2023-05-16T08:02:41;9.00;;;6.20;;
75340;SDS011;64931;47.562;18.920;2023-05-16T08:05:07;8.80;;;6.40;;
75340;SDS011;64931;47.562;18.920;2023-05-16T08:07:33;11.70;;;8.50;;
75340;SDS011;64931;47.562;18.920;2023-05-16T08:09:58;10.40;;;7.00;;
75340;SDS011;64931;47.562;18.920;2023-05-16T08:12:24;14.10;;;9.60;;
75340;SDS011;64931;47.562;18.920;2023-05-16T08:14:51;12.50;;;10.10;;
75340;SDS011;64931;47.562;18.920;2023-05-16T08:17:16;11.80;;;9.00;;
75340;SDS011;64931;47.562;18.920;2023-05-16T08:19:41;11.50;;;8.70;;
75340;SDS011;64931;47.562;18.920;2023-05-16T08:22:07;11.60;;;7.70;;
75340;SDS011;64931;47.562;18.920;2023-05-16T08:24:33;10.70;;;7.90;;
75340;SDS011;64931;47.562;18.920;2023-05-16T08:26:59;9.00;;;7.00;;
75340;SDS011;64931;47.562;18.920;2023-05-16T08:29:25;18.40;;;15.50;;
75340;SDS011;64931;47.562;18.920;2023-05-16T08:31:50;11.30;;;9.10;;
75340;SDS011;64931;47.562;18.920;2023-05-16T08:34:16;12.20;;;9.60;;
75340;SDS011;64931;47.562;18.920;2023-05-16T08:36:41;10.90;;;8.00;;
75340;SDS011;64931;47.562;18.920;2023-05-16T08:39:07;9.30;;;6.90;;
75340;SDS011;64931;47.562;18.920;2023-05-16T08:44:00;9.70;;;7.10;;
75340;SDS011;64931;47.562;18.920;2023-05-16T08:46:27;8.70;;;6.60;;
75340;SDS011;64931;47.562;18.920;2023-05-16T08:48:53;10.00;;;7.80;;
75340;SDS011;64931;47.562;18.920;2023-05-16T08:51:19;9.20;;;6.90;;
75340;SDS011;64931;47.562;18.920;2023-05-16T08:53:53;9.90;;;6.60;;
75340;SDS011;64931;47.562;18.920;2023-05-16T08:56:35;8.30;;;6.20;;
75340;SDS011;64931;47.562;18.920;2023-05-16T08:59:02;8.00;;;6.10;;
75340;SDS011;64931;47.562;18.920;2023-05-16T09:01:29;9.20;;;7.40;;
75340;SDS011;64931;47.562;18.920;2023-05-16T09:03:56;8.70;;;7.20;;
75340;SDS011;64931;47.562;18.920;2023-05-16T09:06:22;8.80;;;6.90;;
75340;SDS011;64931;47.562;18.920;2023-05-16T09:08:48;9.70;;;8.00;;
75340;SDS011;64931;47.562;18.920;2023-05-16T09:11:14;9.80;;;7.30;;
75340;SDS011;64931;47.562;18.920;2023-05-16T09:13:40;8.70;;;7.00;;
75340;SDS011;64931;47.562;18.920;2023-05-16T09:16:16;10.90;;;7.60;;
75340;SDS011;64931;47.562;18.920;2023-05-16T09:18:43;12.20;;;7.00;;
75340;SDS011;64931;47.562;18.920;2023-05-16T09:21:10;9.00;;;6.70;;
75340;SDS011;64931;47.562;18.920;2023-05-16T09:23:36;11.40;;;9.20;;
75340;SDS011;64931;47.562;18.920;2023-05-16T09:26:01;10.20;;;8.60;;
75340;SDS011;64931;47.562;18.920;2023-05-16T09:28:28;10.90;;;9.00;;
75340;SDS011;64931;47.562;18.920;2023-05-16T09:30:54;10.20;;;8.20;;
75340;SDS011;64931;47.562;18.920;2023-05-16T09:33:23;10.40;;;8.30;;
75340;SDS011;64931;47.562;18.920;2023-05-16T09:36:09;12.70;;;9.60;;
75340;SDS011;64931;47.562;18.920;2023-05-16T09:38:34;13.70;;;10.80;;
75340;SDS011;64931;47.562;18.920;2023-05-16T09:41:00;12.70;;;10.30;;
75340;SDS011;64931;47.562;18.920;2023-05-16T09:43:26;12.10;;;10.20;;
75340;SDS011;64931;47.562;18.920;2023-05-16T09:45:51;12.30;;;10.20;;
75340;SDS011;64931;47.562;18.920;2023-05-16T09:48:17;12.40;;;10.80;;
75340;SDS011;64931;47.562;18.920;2023-05-16T09:50:47;12.40;;;9.20;;
75340;SDS011;64931;47.562;18.920;2023-05-16T09:53:26;12.10;;;9.90;;
75340;SDS011;64931;47.562;18.920;2023-05-16T09:56:01;14.70;;;12.30;;
75340;SDS011;64931;47.562;18.920;2023-05-16T09:58:32;11.90;;;9.40;;
75340;SDS011;64931;47.562;18.920;2023-05-16T10:00:59;14.10;;;12.40;;
75340;SDS011;64931;47.562;18.920;2023-05-16T10:03:25;12.60;;;10.30;;
75340;SDS011;64931;47.562;18.920;2023-05-16T10:05:51;15.30;;;12.50;;
75340;SDS011;64931;47.562;18.920;2023-05-16T10:08:19;13.70;;;11.70;;
75340;SDS011;64931;47.562;18.920;2023-05-16T10:10:45;13.10;;;10.40;;
75340;SDS011;64931;47.562;18.920;2023-05-16T10:13:20;15.90;;;13.20;;
75340;SDS011;64931;47.562;18.920;2023-05-16T10:15:48;13.30;;;10.80;;
75340;SDS011;64931;47.562;18.920;2023-05-16T10:18:15;14.90;;;12.40;;
75340;SDS011;64931;47.562;18.920;2023-05-16T10:20:42;14.30;;;12.80;;
75340;SDS011;64931;47.562;18.920;2023-05-16T10:23:10;15.40;;;12.30;;
75340;SDS011;64931;47.562;18.920;2023-05-16T10:25:43;13.00;;;11.00;;
75340;SDS011;64931;47.562;18.920;2023-05-16T10:28:09;13.60;;;12.10;;
75340;SDS011;64931;47.562;18.920;2023-05-16T10:30:34;14.90;;;12.70;;
75340;SDS011;64931;47.562;18.920;2023-05-16T10:33:01;13.40;;;11.80;;
75340;SDS011;64931;47.562;18.920;2023-05-16T10:35:28;12.10;;;10.30;;
75340;SDS011;64931;47.562;18.920;2023-05-16T10:37:55;14.40;;;12.10;;
75340;SDS011;64931;47.562;18.920;2023-05-16T10:40:20;12.50;;;11.00;;
75340;SDS011;64931;47.562;18.920;2023-05-16T10:42:56;13.50;;;11.70;;
75340;SDS011;64931;47.562;18.920;2023-05-16T10:45:22;15.00;;;12.80;;
75340;SDS011;64931;47.562;18.920;2023-05-16T10:47:56;15.20;;;12.50;;
75340;SDS011;64931;47.562;18.920;2023-05-16T10:50:39;15.30;;;13.40;;
75340;SDS011;64931;47.562;18.920;2023-05-16T10:53:12;16.80;;;14.30;;
75340;SDS011;64931;47.562;18.920;2023-05-16T10:55:38;14.30;;;11.50;;
75340;SDS011;64931;47.562;18.920;2023-05-16T10:58:04;16.80;;;14.10;;
75340;SDS011;64931;47.562;18.920;2023-05-16T11:00:30;13.40;;;11.30;;
75340;SDS011;64931;47.562;18.920;2023-05-16T11:03:05;16.20;;;13.00;;
75340;SDS011;64931;47.562;18.920;2023-05-16T11:05:30;14.10;;;12.30;;
75340;SDS011;64931;47.562;18.920;2023-05-16T11:08:04;16.60;;;14.00;;
75340;SDS011;64931;47.562;18.920;2023-05-16T11:10:30;14.60;;;13.10;;
75340;SDS011;64931;47.562;18.920;2023-05-16T11:12:57;14.80;;;13.00;;
75340;SDS011;64931;47.562;18.920;2023-05-16T11:15:27;15.50;;;13.90;;
75340;SDS011;64931;47.562;18.920;2023-05-16T11:18:06;14.40;;;12.70;;
75340;SDS011;64931;47.562;18.920;2023-05-16T11:20:37;13.30;;;11.90;;
75340;SDS011;64931;47.562;18.920;2023-05-16T11:25:41;15.40;;;12.60;;
75340;SDS011;64931;47.562;18.920;2023-05-16T11:28:09;11.90;;;10.40;;
75340;SDS011;64931;47.562;18.920;2023-05-16T11:30:36;14.20;;;12.70;;
75340;SDS011;64931;47.562;18.920;2023-05-16T11:33:07;11.10;;;9.90;;
75340;SDS011;64931;47.562;18.920;2023-05-16T11:35:32;13.60;;;11.30;;
75340;SDS011;64931;47.562;18.920;2023-05-16T11:37:58;12.30;;;11.10;;
75340;SDS011;64931;47.562;18.920;2023-05-16T11:40:25;14.40;;;12.10;;
75340;SDS011;64931;47.562;18.920;2023-05-16T11:42:51;12.90;;;11.20;;
75340;SDS011;64931;47.562;18.920;2023-05-16T11:45:17;14.50;;;13.00;;
75340;SDS011;64931;47.562;18.920;2023-05-16T11:47:45;13.90;;;11.50;;
75340;SDS011;64931;47.562;18.920;2023-05-16T11:50:17;12.30;;;10.90;;
75340;SDS011;64931;47.562;18.920;2023-05-16T11:52:48;12.80;;;11.40;;
75340;SDS011;64931;47.562;18.920;2023-05-16T11:55:18;12.30;;;11.00;;
75340;SDS011;64931;47.562;18.920;2023-05-16T11:57:44;14.00;;;12.50;;
75340;SDS011;64931;47.562;18.920;2023-05-16T12:00:17;16.10;;;13.10;;
75340;SDS011;64931;47.562;18.920;2023-05-16T12:02:44;16.00;;;13.40;;
75340;SDS011;64931;47.562;18.920;2023-05-16T12:05:11;14.40;;;12.80;;
75340;SDS011;64931;47.562;18.920;2023-05-16T12:07:37;13.00;;;11.60;;
75340;SDS011;64931;47.562;18.920;2023-05-16T12:10:05;13.20;;;11.30;;
75340;SDS011;64931;47.562;18.920;2023-05-16T12:12:33;15.70;;;13.90;;
75340;SDS011;64931;47.562;18.920;2023-05-16T12:14:59;13.90;;;11.10;;
75340;SDS011;64931;47.562;18.920;2023-05-16T12:17:25;12.80;;;11.00;;
75340;SDS011;64931;47.562;18.920;2023-05-16T12:19:51;12.90;;;11.40;;
75340;SDS011;64931;47.562;18.920;2023-05-16T12:22:16;14.40;;;12.70;;
75340;SDS011;64931;47.562;18.920;2023-05-16T12:24:45;14.40;;;12.90;;
75340;SDS011;64931;47.562;18.920;2023-05-16T12:27:10;16.30;;;14.40;;
75340;SDS011;64931;47.562;18.920;2023-05-16T12:29:37;15.10;;;13.40;;
75340;SDS011;64931;47.562;18.920;2023-05-16T12:32:02;14.20;;;12.50;;
75340;SDS011;64931;47.562;18.920;2023-05-16T12:34:29;17.00;;;15.20;;
75340;SDS011;64931;47.562;18.920;2023-05-16T12:36:54;17.40;;;14.50;;
75340;SDS011;64931;47.562;18.920;2023-05-16T12:39:20;15.70;;;13.70;;
75340;SDS011;64931;47.562;18.920;2023-05-16T12:41:47;14.20;;;12.70;;
75340;SDS011;64931;47.562;18.920;2023-05-16T12:44:13;14.50;;;13.00;;
75340;SDS011;64931;47.562;18.920;2023-05-16T12:47:00;14.00;;;12.50;;
75340;SDS011;64931;47.562;18.920;2023-05-16T12:49:26;15.30;;;13.00;;
75340;SDS011;64931;47.562;18.920;2023-05-16T12:51:52;16.80;;;12.80;;
75340;SDS011;64931;47.562;18.920;2023-05-16T12:54:19;16.20;;;13.80;;
75340;SDS011;64931;47.562;18.920;2023-05-16T12:56:49;15.20;;;13.20;;
75340;SDS011;64931;47.562;18.920;2023-05-16T12:59:15;18.40;;;15.50;;
75340;SDS011;64931;47.562;18.920;2023-05-16T13:01:40;17.70;;;15.30;;
75340;SDS011;64931;47.562;18.920;2023-05-16T13:04:06;19.80;;;15.30;;
75340;SDS011;64931;47.562;18.920;2023-05-16T13:06:32;16.90;;;14.80;;
75340;SDS011;64931;47.562;18.920;2023-05-16T13:08:58;17.90;;;15.50;;
75340;SDS011;64931;47.562;18.920;2023-05-16T13:11:24;16.30;;;14.60;;
75340;SDS011;64931;47.562;18.920;2023-05-16T13:13:50;16.50;;;14.40;;
75340;SDS011;64931;47.562;18.920;2023-05-16T13:16:16;16.20;;;14.50;;
75340;SDS011;64931;47.562;18.920;2023-05-16T13:18:42;16.90;;;13.70;;
75340;SDS011;64931;47.562;18.920;2023-05-16T13:21:07;18.30;;;15.60;;
75340;SDS011;64931;47.562;18.920;2023-05-16T13:23:32;17.50;;;15.60;;
75340;SDS011;64931;47.562;18.920;2023-05-16T13:25:58;14.60;;;13.10;;
75340;SDS011;64931;47.562;18.920;2023-05-16T13:28:23;14.60;;;13.10;;
75340;SDS011;64931;47.562;18.920;2023-05-16T13:30:49;16.10;;;13.30;;
75340;SDS011;64931;47.562;18.920;2023-05-16T13:33:15;16.30;;;13.60;;
75340;SDS011;64931;47.562;18.920;2023-05-16T13:35:41;15.90;;;12.10;;
75340;SDS011;64931;47.562;18.920;2023-05-16T13:38:07;17.60;;;13.30;;
75340;SDS011;64931;47.562;18.920;2023-05-16T13:40:33;14.70;;;11.80;;
75340;SDS011;64931;47.562;18.920;2023-05-16T13:42:59;16.30;;;13.30;;
75340;SDS011;64931;47.562;18.920;2023-05-16T13:45:25;17.00;;;12.30;;
75340;SDS011;64931;47.562;18.920;2023-05-16T13:47:51;17.60;;;13.80;;
75340;SDS011;64931;47.562;18.920;2023-05-16T13:50:16;19.10;;;14.90;;
75340;SDS011;64931;47.562;18.920;2023-05-16T13:52:42;14.10;;;12.70;;
75340;SDS011;64931;47.562;18.920;2023-05-16T13:55:08;15.50;;;13.90;;
75340;SDS011;64931;47.562;18.920;2023-05-16T13:57:34;15.30;;;13.20;;
75340;SDS011;64931;47.562;18.920;2023-05-16T14:00:00;14.20;;;12.60;;
75340;SDS011;64931;47.562;18.920;2023-05-16T14:02:26;18.10;;;13.30;;
75340;SDS011;64931;47.562;18.920;2023-05-16T14:04:51;16.30;;;12.50;;
75340;SDS011;64931;47.562;18.920;2023-05-16T14:07:17;17.20;;;10.90;;
75340;SDS011;64931;47.562;18.920;2023-05-16T14:09:43;16.10;;;12.60;;
75340;SDS011;64931;47.562;18.920;2023-05-16T14:12:09;15.30;;;10.70;;
75340;SDS011;64931;47.562;18.920;2023-05-16T14:14:35;14.20;;;11.30;;
75340;SDS011;64931;47.562;18.920;2023-05-16T14:17:01;12.70;;;10.40;;
75340;SDS011;64931;47.562;18.920;2023-05-16T14:19:28;12.60;;;10.60;;
75340;SDS011;64931;47.562;18.920;2023-05-16T14:21:54;14.10;;;12.30;;
75340;SDS011;64931;47.562;18.920;2023-05-16T14:24:19;13.60;;;10.60;;
75340;SDS011;64931;47.562;18.920;2023-05-16T14:26:45;13.70;;;10.90;;
75340;SDS011;64931;47.562;18.920;2023-05-16T14:29:10;16.00;;;11.60;;
75340;SDS011;64931;47.562;18.920;2023-05-16T14:31:37;16.90;;;11.70;;
75340;SDS011;64931;47.562;18.920;2023-05-16T14:34:02;15.20;;;10.70;;
75340;SDS011;64931;47.562;18.920;2023-05-16T14:36:28;14.90;;;13.20;;
75340;SDS011;64931;47.562;18.920;2023-05-16T14:38:53;20.10;;;12.20;;